createdAt,value
2018-02-19T00:00:28.745Z,15.60
2018-02-19T00:01:28.667Z,17.50
2018-02-19T00:03:22.984Z,16.00
2018-02-19T00:04:23.072Z,16.00
2018-02-19T00:06:17.370Z,17.30
2018-02-19T00:07:17.309Z,14.30
2018-02-19T00:09:11.764Z,19.50
2018-02-19T00:10:11.710Z,17.50
2018-02-19T00:12:06.173Z,17.70
2018-02-19T00:13:06.115Z,16.50
2018-02-19T00:15:01.387Z,20.40
2018-02-19T00:16:01.322Z,18.70
2018-02-19T00:17:55.732Z,17.60
2018-02-19T00:18:55.719Z,18.40
2018-02-19T00:20:50.217Z,17.20
2018-02-19T00:21:50.116Z,18.60
2018-02-19T00:23:44.479Z,16.70
2018-02-19T00:24:44.467Z,18.20
2018-02-19T00:26:38.881Z,17.40
2018-02-19T00:27:38.862Z,18.40
2018-02-19T00:29:33.196Z,19.10
2018-02-19T00:30:33.181Z,21.00
2018-02-19T00:32:27.586Z,18.00
2018-02-19T00:33:27.542Z,19.70
2018-02-19T00:35:22.158Z,18.70
2018-02-19T00:36:21.868Z,18.70
2018-02-19T00:38:16.739Z,17.20
2018-02-19T00:39:16.456Z,19.80
2018-02-19T00:41:10.888Z,19.40
2018-02-19T00:42:10.859Z,18.30
2018-02-19T00:44:05.256Z,17.30
2018-02-19T00:45:05.200Z,19.10
2018-02-19T00:46:59.602Z,20.90
2018-02-19T00:47:59.544Z,18.50
2018-02-19T00:49:53.900Z,19.40
2018-02-19T00:50:53.889Z,19.20
2018-02-19T00:52:48.284Z,21.90
2018-02-19T00:53:48.229Z,24.90
2018-02-19T00:55:42.587Z,17.80
2018-02-19T00:56:42.573Z,18.20
2018-02-19T00:58:37.060Z,22.40
2018-02-19T00:59:36.945Z,19.80
2018-02-19T01:01:31.304Z,14.80
2018-02-19T01:02:31.288Z,17.80
2018-02-19T01:04:25.681Z,15.90
2018-02-19T01:05:25.630Z,16.00
2018-02-19T01:07:20.010Z,15.20
2018-02-19T01:08:19.975Z,16.00
2018-02-19T01:10:14.413Z,15.80
2018-02-19T01:11:14.316Z,16.90
2018-02-19T01:13:08.672Z,18.70
2018-02-19T01:14:08.659Z,17.70
2018-02-19T01:16:03.120Z,18.90
2018-02-19T01:17:03.013Z,19.10
2018-02-19T01:18:57.384Z,18.80
2018-02-19T01:19:57.369Z,19.80
2018-02-19T01:21:51.817Z,18.40
2018-02-19T01:22:51.714Z,17.00
2018-02-19T01:24:46.094Z,18.40
2018-02-19T01:25:46.076Z,20.60
2018-02-19T01:27:40.478Z,20.80
2018-02-19T01:28:40.421Z,16.80
2018-02-19T01:30:34.775Z,16.70
2018-02-19T01:31:34.794Z,17.10
2018-02-19T01:33:29.154Z,16.70
2018-02-19T01:34:29.100Z,18.40
2018-02-19T01:36:23.453Z,17.60
2018-02-19T01:37:23.440Z,18.60
2018-02-19T01:39:18.254Z,13.50
2018-02-19T01:40:17.786Z,19.00
2018-02-19T01:42:12.262Z,17.30
2018-02-19T01:43:12.160Z,14.30
2018-02-19T01:45:06.479Z,21.20
2018-02-19T01:46:06.464Z,18.10
2018-02-19T01:48:00.862Z,16.20
2018-02-19T01:49:00.807Z,18.10
2018-02-19T01:50:55.209Z,20.80
2018-02-19T01:51:55.151Z,19.00
2018-02-19T01:53:49.600Z,18.50
2018-02-19T01:54:49.494Z,16.20
2018-02-19T01:56:43.839Z,13.50
2018-02-19T01:57:43.827Z,16.50
2018-02-19T01:59:38.287Z,16.20
2018-02-19T02:00:38.170Z,15.80
2018-02-19T02:02:32.566Z,17.70
2018-02-19T02:03:32.507Z,16.70
2018-02-19T02:05:26.867Z,17.30
2018-02-19T02:06:26.851Z,15.80
2018-02-19T02:08:22.226Z,15.10
2018-02-19T02:09:22.238Z,15.70
2018-02-19T02:11:16.906Z,17.70
2018-02-19T02:12:15.620Z,18.70
2018-02-19T02:14:09.922Z,16.40
2018-02-19T02:15:09.926Z,16.90
2018-02-19T02:17:04.222Z,17.90
2018-02-19T02:18:04.209Z,16.90
2018-02-19T02:19:58.648Z,16.50
2018-02-19T02:20:58.551Z,19.00
2018-02-19T02:22:52.950Z,17.00
2018-02-19T02:23:52.895Z,14.60
2018-02-19T02:25:47.267Z,16.40
2018-02-19T02:26:47.252Z,15.60
2018-02-19T02:28:41.651Z,18.40
2018-02-19T02:29:41.594Z,18.10
2018-02-19T02:31:35.952Z,15.20
2018-02-19T02:32:35.938Z,18.80
2018-02-19T02:34:30.349Z,17.00
2018-02-19T02:35:30.282Z,16.30
2018-02-19T02:37:24.635Z,15.00
2018-02-19T02:38:24.624Z,17.10
2018-02-19T02:40:19.095Z,16.80
2018-02-19T02:41:18.955Z,17.00
2018-02-19T02:43:13.317Z,17.90
2018-02-19T02:44:13.413Z,17.30
2018-02-19T02:46:07.701Z,18.90
2018-02-19T02:47:07.645Z,19.00
2018-02-19T02:49:02.000Z,17.20
2018-02-19T02:50:01.986Z,16.50
2018-02-19T02:51:57.339Z,17.10
2018-02-19T02:52:56.326Z,15.70
2018-02-19T02:54:50.682Z,17.40
2018-02-19T02:55:50.667Z,18.90
2018-02-19T02:57:45.116Z,17.00
2018-02-19T02:58:45.014Z,17.20
2018-02-19T03:00:39.525Z,17.40
2018-02-19T03:01:39.375Z,16.60
2018-02-19T03:03:34.496Z,19.70
2018-02-19T03:04:33.820Z,17.70
2018-02-19T03:06:28.156Z,16.80
2018-02-19T03:07:28.059Z,18.80
2018-02-19T03:09:22.412Z,18.20
2018-02-19T03:10:22.395Z,20.70
2018-02-19T03:12:16.815Z,16.50
2018-02-19T03:13:16.747Z,17.70
2018-02-19T03:15:11.106Z,17.40
2018-02-19T03:16:11.094Z,16.00
2018-02-19T03:18:05.494Z,17.70
2018-02-19T03:19:05.434Z,19.50
2018-02-19T03:20:59.800Z,17.70
2018-02-19T03:21:59.771Z,17.80
2018-02-19T03:23:54.511Z,17.90
2018-02-19T03:24:54.613Z,17.10
2018-02-19T03:26:48.472Z,18.80
2018-02-19T03:27:48.443Z,19.80
2018-02-19T03:29:42.885Z,18.30
2018-02-19T03:30:42.785Z,17.80
2018-02-19T03:32:37.140Z,17.80
2018-02-19T03:33:37.127Z,19.80
2018-02-19T03:35:31.591Z,17.50
2018-02-19T03:36:31.476Z,19.00
2018-02-19T03:38:25.818Z,20.60
2018-02-19T03:39:25.805Z,17.50
2018-02-19T03:41:20.290Z,19.70
2018-02-19T03:42:20.148Z,16.10
2018-02-19T03:44:14.539Z,21.20
2018-02-19T03:45:14.488Z,17.50
2018-02-19T03:47:08.882Z,16.20
2018-02-19T03:48:08.825Z,19.30
2018-02-19T03:50:03.219Z,15.20
2018-02-19T03:51:03.165Z,17.50
2018-02-19T03:52:57.521Z,19.70
2018-02-19T03:53:57.509Z,15.50
2018-02-19T03:55:51.986Z,14.30
2018-02-19T03:56:51.839Z,17.10
2018-02-19T03:58:46.193Z,19.20
2018-02-19T03:59:46.177Z,17.20
2018-02-19T04:01:40.573Z,14.70
2018-02-19T04:02:40.519Z,17.50
2018-02-19T04:04:34.920Z,15.40
2018-02-19T04:05:34.866Z,18.00
2018-02-19T04:07:29.270Z,21.30
2018-02-19T04:08:29.216Z,19.50
2018-02-19T04:10:23.793Z,17.60
2018-02-19T04:11:23.561Z,16.50
2018-02-19T04:13:17.911Z,19.60
2018-02-19T04:14:17.913Z,19.40
2018-02-19T04:16:12.376Z,18.40
2018-02-19T04:17:12.242Z,17.30
2018-02-19T04:19:06.652Z,16.60
2018-02-19T04:20:06.573Z,19.50
2018-02-19T04:22:00.926Z,20.80
2018-02-19T04:23:00.909Z,18.90
2018-02-19T04:24:55.391Z,19.30
2018-02-19T04:25:55.251Z,18.70
2018-02-19T04:27:50.590Z,15.10
2018-02-19T04:28:50.886Z,17.90
2018-02-19T04:30:46.005Z,14.30
2018-02-19T04:31:44.548Z,14.70
2018-02-19T04:33:38.273Z,15.90
2018-02-19T04:34:38.405Z,15.00
2018-02-19T04:36:36.332Z,17.10
2018-02-19T04:37:32.673Z,14.20
2018-02-19T04:39:27.018Z,17.40
2018-02-19T04:40:27.009Z,14.90
2018-02-19T04:42:26.429Z,19.10
2018-02-19T04:43:26.271Z,15.00
2018-02-19T04:45:20.675Z,16.60
2018-02-19T04:46:20.616Z,18.70
2018-02-19T04:48:15.402Z,18.00
2018-02-19T04:49:14.962Z,19.30
2018-02-19T04:51:09.323Z,19.50
2018-02-19T04:52:09.304Z,18.70
2018-02-19T04:54:03.706Z,19.40
2018-02-19T04:55:03.644Z,18.00
2018-02-19T04:56:57.996Z,20.60
2018-02-19T04:57:57.986Z,21.60
2018-02-19T04:59:52.432Z,23.70
2018-02-19T05:00:52.316Z,15.70
2018-02-19T05:02:46.663Z,21.10
2018-02-19T05:03:46.649Z,17.10
2018-02-19T05:05:41.054Z,16.80
2018-02-19T05:06:40.991Z,18.70
2018-02-19T05:08:35.349Z,14.30
2018-02-19T05:09:35.345Z,17.90
2018-02-19T05:11:29.769Z,17.40
2018-02-19T05:12:29.678Z,15.60
2018-02-19T05:14:24.044Z,17.90
2018-02-19T05:15:24.028Z,17.50
2018-02-19T05:17:18.484Z,16.90
2018-02-19T05:18:18.370Z,15.70
2018-02-19T05:20:12.730Z,22.00
2018-02-19T05:21:12.710Z,21.10
2018-02-19T05:23:07.109Z,18.80
2018-02-19T05:24:07.052Z,19.40
2018-02-19T05:26:01.408Z,17.80
2018-02-19T05:27:01.395Z,19.90
2018-02-19T05:28:55.807Z,17.80
2018-02-19T05:29:55.754Z,21.20
2018-02-19T05:31:50.149Z,15.80
2018-02-19T05:32:50.106Z,16.30
2018-02-19T05:34:44.457Z,38.70
2018-02-19T05:35:44.463Z,27.10
2018-02-19T05:37:38.893Z,19.90
2018-02-19T05:38:38.786Z,18.40
2018-02-19T05:40:33.151Z,22.00
2018-02-19T05:41:33.132Z,20.10
2018-02-19T05:43:27.521Z,16.80
2018-02-19T05:44:27.466Z,16.60
2018-02-19T05:46:21.816Z,17.00
2018-02-19T05:47:21.803Z,17.90
2018-02-19T05:49:16.203Z,18.00
2018-02-19T05:50:16.174Z,19.00
2018-02-19T05:52:10.498Z,20.50
2018-02-19T05:53:10.486Z,23.00
2018-02-19T05:55:05.121Z,22.80
2018-02-19T05:56:04.824Z,19.40
2018-02-19T05:57:59.178Z,18.80
2018-02-19T05:58:59.165Z,20.60
2018-02-19T06:00:53.683Z,20.50
2018-02-19T06:01:54.527Z,19.40
2018-02-19T06:03:48.446Z,19.80
2018-02-19T06:04:49.856Z,17.50
2018-02-19T06:06:42.622Z,18.40
2018-02-19T06:07:42.257Z,18.60
2018-02-19T06:09:36.539Z,19.30
2018-02-19T06:10:36.524Z,17.40
2018-02-19T06:12:31.020Z,19.50
2018-02-19T06:13:30.863Z,18.20
2018-02-19T06:15:25.268Z,19.50
2018-02-19T06:16:25.211Z,19.60
2018-02-19T06:18:19.571Z,18.20
2018-02-19T06:19:19.558Z,19.40
2018-02-19T06:21:13.976Z,18.80
2018-02-19T06:22:14.618Z,22.10
2018-02-19T06:24:08.254Z,22.50
2018-02-19T06:25:08.257Z,23.10
2018-02-19T06:27:02.656Z,20.20
2018-02-19T06:28:02.591Z,21.00
2018-02-19T06:29:56.949Z,23.00
2018-02-19T06:30:56.932Z,20.20
2018-02-19T06:32:51.382Z,21.80
2018-02-19T06:33:51.276Z,21.00
2018-02-19T06:35:45.675Z,19.60
2018-02-19T06:36:45.617Z,23.20
2018-02-19T06:38:40.017Z,20.30
2018-02-19T06:39:39.963Z,20.30
2018-02-19T06:41:34.335Z,25.60
2018-02-19T06:42:34.302Z,23.20
2018-02-19T06:44:28.700Z,22.30
2018-02-19T06:45:28.641Z,22.60
2018-02-19T06:47:23.083Z,23.90
2018-02-19T06:48:22.981Z,19.50
2018-02-19T06:50:17.337Z,21.70
2018-02-19T06:51:17.322Z,22.00
2018-02-19T06:53:11.850Z,25.60
2018-02-19T06:54:11.703Z,22.40
2018-02-19T06:56:06.038Z,22.30
2018-02-19T06:57:06.005Z,23.70
2018-02-19T06:59:00.400Z,24.80
2018-02-19T07:00:00.343Z,23.30
2018-02-19T07:01:54.696Z,24.30
2018-02-19T07:02:54.685Z,24.30
2018-02-19T07:04:49.082Z,29.70
2018-02-19T07:05:49.032Z,24.10
2018-02-19T07:07:43.426Z,26.90
2018-02-19T07:08:43.365Z,25.60
2018-02-19T07:10:37.719Z,21.90
2018-02-19T07:11:37.706Z,21.90
2018-02-19T07:13:32.174Z,23.00
2018-02-19T07:14:32.144Z,24.20
2018-02-19T07:16:27.203Z,25.80
2018-02-19T07:17:27.181Z,23.00
2018-02-19T07:19:21.585Z,24.60
2018-02-19T07:20:21.532Z,23.70
2018-02-19T07:22:15.932Z,23.20
2018-02-19T07:23:15.868Z,23.40
2018-02-19T07:25:10.255Z,29.70
2018-02-19T07:26:10.237Z,30.70
2018-02-19T07:28:04.670Z,24.10
2018-02-19T07:29:05.050Z,23.90
2018-02-19T07:30:59.044Z,24.60
2018-02-19T07:31:58.921Z,23.90
2018-02-19T07:33:53.389Z,22.20
2018-02-19T07:34:52.515Z,23.60
2018-02-19T07:36:46.677Z,23.90
2018-02-19T07:37:47.322Z,22.70
2018-02-19T07:39:41.826Z,25.30
2018-02-19T07:40:41.064Z,24.00
2018-02-19T07:42:34.667Z,26.20
2018-02-19T07:43:35.719Z,23.50
2018-02-19T07:45:29.336Z,21.50
2018-02-19T07:46:29.077Z,23.60
2018-02-19T07:48:23.423Z,21.50
2018-02-19T07:49:23.409Z,26.40
2018-02-19T07:51:22.723Z,25.60
2018-02-19T07:52:22.659Z,33.60
2018-02-19T07:54:17.086Z,25.90
2018-02-19T07:55:17.010Z,23.60
2018-02-19T07:57:11.504Z,31.40
2018-02-19T07:58:11.359Z,24.60
2018-02-19T08:00:05.713Z,26.30
2018-02-19T08:01:05.701Z,25.60
2018-02-19T08:03:05.930Z,22.00
2018-02-19T08:04:05.876Z,20.70
2018-02-19T08:06:00.269Z,26.10
2018-02-19T08:07:00.558Z,28.40
2018-02-19T08:08:54.928Z,26.30
2018-02-19T08:09:54.773Z,32.20
2018-02-19T08:11:49.035Z,30.80
2018-02-19T08:12:49.023Z,27.10
2018-02-19T08:14:43.468Z,25.30
2018-02-19T08:15:43.364Z,30.80
2018-02-19T08:17:38.583Z,26.00
2018-02-19T08:18:38.626Z,25.80
2018-02-19T08:20:32.991Z,26.60
2018-02-19T08:21:32.929Z,31.40
2018-02-19T08:22:32.909Z,29.50
2018-02-19T08:23:32.916Z,26.40
2018-02-19T08:24:32.883Z,24.00
2018-02-19T08:25:32.881Z,24.20
2018-02-19T08:26:32.865Z,27.10
2018-02-19T08:27:32.854Z,27.20
2018-02-19T08:28:32.846Z,24.00
2018-02-19T08:29:32.842Z,25.40
2018-02-19T08:30:32.850Z,26.20
2018-02-19T08:31:32.821Z,24.80
2018-02-19T08:32:32.816Z,27.00
2018-02-19T08:33:32.805Z,30.40
2018-02-19T08:34:32.798Z,40.20
2018-02-19T08:35:32.779Z,43.80
2018-02-19T08:36:32.771Z,35.00
2018-02-19T08:37:32.760Z,30.40
2018-02-19T08:38:32.788Z,30.40
2018-02-19T08:39:32.745Z,24.50
2018-02-19T08:40:32.731Z,25.70
2018-02-19T08:41:33.402Z,22.40
2018-02-19T08:42:32.718Z,24.10
2018-02-19T08:43:32.703Z,26.60
2018-02-19T08:44:32.694Z,20.10
2018-02-19T08:45:32.685Z,22.70
2018-02-19T08:46:32.692Z,22.80
2018-02-19T08:47:32.667Z,25.20
2018-02-19T08:48:32.659Z,25.60
2018-02-19T08:49:32.821Z,38.80
2018-02-19T08:50:32.638Z,37.50
2018-02-19T08:51:32.635Z,29.10
2018-02-19T08:52:32.625Z,23.90
2018-02-19T08:53:32.612Z,23.20
2018-02-19T08:54:32.602Z,26.00
2018-02-19T08:55:32.596Z,31.20
2018-02-19T08:56:32.626Z,37.20
2018-02-19T08:57:32.573Z,36.60
2018-02-19T08:58:32.565Z,24.60
2018-02-19T08:59:32.584Z,26.60
2018-02-19T09:00:32.550Z,40.90
2018-02-19T09:01:32.534Z,24.90
2018-02-19T09:02:32.531Z,31.00
2018-02-19T09:03:32.531Z,27.60
2018-02-19T09:04:32.512Z,24.40
2018-02-19T09:05:32.506Z,29.20
2018-02-19T09:06:32.491Z,29.30
2018-02-19T09:07:32.480Z,26.50
2018-02-19T09:08:32.475Z,44.10
2018-02-19T09:09:32.462Z,37.70
2018-02-19T09:10:32.454Z,49.60
2018-02-19T09:11:32.447Z,49.90
2018-02-19T09:12:32.438Z,72.60
2018-02-19T09:13:32.433Z,53.40
2018-02-19T09:14:32.438Z,28.00
2018-02-19T09:15:32.418Z,31.30
2018-02-19T09:16:32.402Z,38.00
2018-02-19T09:17:32.392Z,21.50
2018-02-19T09:18:32.383Z,29.30
2018-02-19T09:19:32.377Z,23.00
2018-02-19T09:20:32.369Z,22.40
2018-02-19T09:21:32.363Z,24.10
2018-02-19T09:22:32.352Z,30.50
2018-02-19T09:23:32.345Z,24.90
2018-02-19T09:24:32.367Z,22.70
2018-02-19T09:25:32.328Z,28.70
2018-02-19T09:26:32.317Z,35.10
2018-02-19T09:27:32.309Z,35.30
2018-02-19T09:28:32.298Z,27.20
2018-02-19T09:29:32.289Z,44.80
2018-02-19T09:30:32.281Z,32.20
2018-02-19T09:31:32.271Z,33.30
2018-02-19T09:32:32.263Z,35.70
2018-02-19T09:33:32.255Z,30.10
2018-02-19T09:34:32.253Z,28.40
2018-02-19T09:35:32.239Z,31.10
2018-02-19T09:36:32.230Z,27.00
2018-02-19T09:37:32.224Z,100.00
2018-02-19T09:38:32.215Z,68.90
2018-02-19T09:39:32.205Z,55.50
2018-02-19T09:40:32.200Z,46.60
2018-02-19T09:41:32.193Z,45.20
2018-02-19T09:42:32.203Z,26.50
2018-02-19T09:43:32.173Z,24.30
2018-02-19T09:44:32.218Z,37.80
2018-02-19T09:45:32.158Z,62.70
2018-02-19T09:46:32.151Z,97.50
2018-02-19T09:47:32.146Z,77.80
2018-02-19T09:48:32.135Z,65.00
2018-02-19T09:49:32.126Z,109.10
2018-02-19T09:50:32.122Z,53.50
2018-02-19T09:51:32.112Z,56.10
2018-02-19T09:52:32.142Z,96.60
2018-02-19T09:53:32.100Z,74.50
2018-02-19T09:54:32.094Z,79.20
2018-02-19T09:55:32.085Z,46.60
2018-02-19T09:56:32.072Z,70.40
2018-02-19T09:57:32.066Z,99.50
2018-02-19T09:58:32.112Z,95.10
2018-02-19T09:59:32.049Z,66.80
2018-02-19T10:00:32.045Z,39.10
2018-02-19T10:01:32.036Z,53.40
2018-02-19T10:02:32.028Z,32.20
2018-02-19T10:03:32.020Z,39.20
2018-02-19T10:04:32.013Z,31.70
2018-02-19T10:05:32.059Z,30.30
2018-02-19T10:06:31.999Z,28.20
2018-02-19T10:07:31.991Z,30.60
2018-02-19T10:08:32.004Z,35.80
2018-02-19T10:09:32.073Z,29.20
2018-02-19T10:10:31.980Z,65.90
2018-02-19T10:11:31.961Z,33.30
2018-02-19T10:12:31.960Z,30.80
2018-02-19T10:13:31.963Z,25.00
2018-02-19T10:14:31.964Z,31.00
2018-02-19T10:15:31.939Z,24.00
2018-02-19T10:16:31.932Z,27.10
2018-02-19T10:17:31.925Z,27.80
2018-02-19T10:18:31.912Z,20.80
2018-02-19T10:19:31.917Z,23.70
2018-02-19T10:20:31.904Z,25.70
2018-02-19T10:21:31.901Z,18.20
2018-02-19T10:22:31.883Z,22.50
2018-02-19T10:23:31.876Z,27.10
2018-02-19T10:24:31.869Z,33.50
2018-02-19T10:25:31.863Z,25.10
2018-02-19T10:26:31.858Z,28.00
2018-02-19T10:27:31.856Z,24.40
2018-02-19T10:28:31.842Z,20.60
2018-02-19T10:29:31.867Z,24.20
2018-02-19T10:30:31.828Z,23.30
2018-02-19T10:31:31.819Z,24.20
2018-02-19T10:32:31.823Z,27.40
2018-02-19T10:33:31.809Z,36.90
2018-02-19T10:34:31.798Z,26.60
2018-02-19T10:35:31.799Z,28.90
2018-02-19T10:36:31.819Z,24.50
2018-02-19T10:37:31.777Z,26.30
2018-02-19T10:38:31.774Z,26.20
2018-02-19T10:39:31.763Z,36.70
2018-02-19T10:40:31.843Z,29.10
2018-02-19T10:41:31.765Z,26.40
2018-02-19T10:42:31.747Z,28.80
2018-02-19T10:43:31.740Z,65.70
2018-02-19T10:44:31.740Z,43.80
2018-02-19T10:45:31.766Z,32.50
2018-02-19T10:46:31.717Z,25.20
2018-02-19T10:47:31.711Z,29.40
2018-02-19T10:48:31.707Z,27.70
2018-02-19T10:49:31.697Z,34.70
2018-02-19T10:50:31.716Z,27.00
2018-02-19T10:51:31.686Z,23.40
2018-02-19T10:52:31.742Z,28.40
2018-02-19T10:53:31.671Z,32.70
2018-02-19T10:54:31.670Z,29.20
2018-02-19T10:55:31.668Z,28.80
2018-02-19T10:56:32.439Z,33.10
2018-02-19T10:57:31.655Z,31.80
2018-02-19T10:58:31.671Z,28.50
2018-02-19T10:59:31.631Z,24.20
2018-02-19T11:00:31.633Z,23.60
2018-02-19T11:01:31.622Z,31.40
2018-02-19T11:02:31.632Z,32.40
2018-02-19T11:03:31.642Z,31.20
2018-02-19T11:04:32.026Z,21.90
2018-02-19T11:05:31.597Z,23.20
2018-02-19T11:06:31.588Z,20.30
2018-02-19T11:07:31.586Z,22.00
2018-02-19T11:08:31.575Z,34.80
2018-02-19T11:09:31.578Z,43.40
2018-02-19T11:10:31.565Z,35.20
2018-02-19T11:11:31.556Z,34.10
2018-02-19T11:12:31.771Z,26.10
2018-02-19T11:13:31.549Z,34.00
2018-02-19T11:14:31.540Z,26.00
2018-02-19T11:15:31.599Z,28.40
2018-02-19T11:16:31.529Z,40.30
2018-02-19T11:17:31.524Z,32.70
2018-02-19T11:18:31.513Z,25.60
2018-02-19T11:19:31.505Z,29.70
2018-02-19T11:20:31.502Z,23.00
2018-02-19T11:21:31.510Z,29.60
2018-02-19T11:22:31.495Z,23.80
2018-02-19T11:23:31.482Z,23.20
2018-02-19T11:24:31.481Z,25.30
2018-02-19T11:25:32.290Z,37.10
2018-02-19T11:26:31.492Z,34.60
2018-02-19T11:27:31.462Z,33.70
2018-02-19T11:28:31.456Z,30.60
2018-02-19T11:29:31.482Z,27.80
2018-02-19T11:30:31.446Z,31.30
2018-02-19T11:31:31.434Z,27.70
2018-02-19T11:32:31.513Z,30.30
2018-02-19T11:33:31.442Z,25.60
2018-02-19T11:34:31.446Z,27.20
2018-02-19T11:35:32.549Z,39.50
2018-02-19T11:36:31.457Z,36.80
2018-02-19T11:37:31.399Z,24.90
2018-02-19T11:38:31.408Z,27.80
2018-02-19T11:39:31.387Z,35.00
2018-02-19T11:40:31.414Z,34.40
2018-02-19T11:41:35.127Z,29.70
2018-02-19T11:42:31.737Z,23.50
2018-02-19T11:43:31.368Z,28.10
2018-02-19T11:44:31.357Z,31.60
2018-02-19T11:45:31.356Z,40.40
2018-02-19T11:46:31.369Z,35.90
2018-02-19T11:47:31.384Z,29.60
2018-02-19T11:48:31.586Z,38.90
2018-02-19T11:49:31.575Z,27.30
2018-02-19T11:50:31.325Z,29.80
2018-02-19T11:51:31.590Z,33.70
2018-02-19T11:52:31.795Z,29.60
2018-02-19T11:53:31.305Z,41.80
2018-02-19T11:54:31.386Z,37.10
2018-02-19T11:55:31.353Z,32.70
2018-02-19T11:56:31.382Z,49.70
2018-02-19T11:57:31.328Z,33.20
2018-02-19T11:58:31.285Z,23.80
2018-02-19T11:59:31.744Z,31.80
2018-02-19T12:00:31.650Z,43.20
2018-02-19T12:01:31.282Z,38.80
2018-02-19T12:02:31.257Z,48.60
2018-02-19T12:03:32.675Z,44.50
2018-02-19T12:04:32.394Z,22.00
2018-02-19T12:05:31.236Z,22.20
2018-02-19T12:06:31.236Z,35.00
2018-02-19T12:07:31.334Z,23.40
2018-02-19T12:08:32.076Z,27.80
2018-02-19T12:09:31.214Z,39.90
2018-02-19T12:10:31.209Z,33.80
2018-02-19T12:11:34.007Z,27.40
2018-02-19T12:12:31.332Z,38.30
2018-02-19T12:13:35.690Z,20.60
2018-02-19T12:14:31.190Z,22.00
2018-02-19T12:15:31.185Z,38.10
2018-02-19T12:16:31.363Z,24.50
2018-02-19T12:17:32.040Z,33.80
2018-02-19T12:18:31.166Z,23.80
2018-02-19T12:19:31.960Z,24.20
2018-02-19T12:20:31.362Z,22.30
2018-02-19T12:21:31.164Z,18.10
2018-02-19T12:22:31.143Z,20.40
2018-02-19T12:23:31.427Z,27.80
2018-02-19T12:24:32.460Z,26.10
2018-02-19T12:25:31.141Z,28.40
2018-02-19T12:26:31.505Z,17.60
2018-02-19T12:27:31.262Z,20.90
2018-02-19T12:28:31.106Z,19.70
2018-02-19T12:29:31.270Z,21.90
2018-02-19T12:30:31.101Z,22.70
2018-02-19T12:31:31.462Z,19.60
2018-02-19T12:32:31.085Z,21.60
2018-02-19T12:33:31.093Z,36.60
2018-02-19T12:34:31.281Z,26.80
2018-02-19T12:35:31.473Z,24.80
2018-02-19T12:36:31.063Z,27.40
2018-02-19T12:37:31.060Z,30.30
2018-02-19T12:38:31.332Z,25.90
2018-02-19T12:39:31.419Z,27.80
2018-02-19T12:40:31.044Z,20.80
2018-02-19T12:41:31.153Z,19.80
2018-02-19T12:42:31.204Z,17.50
2018-02-19T12:43:31.179Z,29.30
2018-02-19T12:44:31.231Z,24.00
2018-02-19T12:45:31.027Z,22.10
2018-02-19T12:46:31.013Z,21.90
2018-02-19T12:47:31.004Z,18.80
2018-02-19T12:48:30.995Z,23.00
2018-02-19T12:49:31.406Z,24.60
2018-02-19T12:50:31.388Z,19.20
2018-02-19T12:51:30.981Z,25.40
2018-02-19T12:52:30.979Z,22.00
2018-02-19T12:53:31.059Z,25.20
2018-02-19T12:54:30.964Z,24.10
2018-02-19T12:55:31.352Z,26.10
2018-02-19T12:56:30.955Z,22.00
2018-02-19T12:57:31.123Z,26.20
2018-02-19T12:58:30.944Z,25.40
2018-02-19T12:59:30.937Z,21.50
2018-02-19T13:00:30.935Z,24.00
2018-02-19T13:01:30.987Z,34.60
2018-02-19T13:02:30.921Z,24.80
2018-02-19T13:03:32.779Z,24.90
2018-02-19T13:05:28.474Z,19.90
2018-02-19T13:06:26.988Z,31.20
2018-02-19T13:07:26.909Z,23.90
2018-02-19T13:08:26.899Z,20.70
2018-02-19T13:09:26.897Z,20.10
2018-02-19T13:10:27.367Z,19.90
2018-02-19T13:11:26.881Z,25.50
2018-02-19T13:12:26.926Z,30.40
2018-02-19T13:13:27.081Z,34.10
2018-02-19T13:14:27.019Z,29.20
2018-02-19T13:15:27.809Z,23.50
2018-02-19T13:16:26.858Z,22.80
2018-02-19T13:17:26.847Z,20.30
2018-02-19T13:18:26.844Z,18.80
2018-02-19T13:19:26.841Z,19.90
2018-02-19T13:20:26.830Z,20.50
2018-02-19T13:21:27.071Z,17.20
2018-02-19T13:22:26.824Z,23.20
2018-02-19T13:23:26.814Z,16.60
2018-02-19T13:24:26.810Z,21.40
2018-02-19T13:25:26.803Z,23.50
2018-02-19T13:26:26.833Z,25.60
2018-02-19T13:27:26.792Z,20.00
2018-02-19T13:28:26.784Z,18.30
2018-02-19T13:29:26.780Z,17.50
2018-02-19T13:30:26.775Z,19.50
2018-02-19T13:31:26.769Z,23.20
2018-02-19T13:32:26.770Z,20.00
2018-02-19T13:33:26.758Z,20.30
2018-02-19T13:34:26.751Z,18.20
2018-02-19T13:35:26.759Z,22.50
2018-02-19T13:36:26.747Z,19.60
2018-02-19T13:37:26.737Z,22.10
2018-02-19T13:38:26.733Z,20.70
2018-02-19T13:39:26.765Z,18.90
2018-02-19T13:40:26.721Z,21.80
2018-02-19T13:41:26.714Z,21.40
2018-02-19T13:42:26.725Z,22.00
2018-02-19T13:43:26.701Z,22.80
2018-02-19T13:44:26.697Z,21.40
2018-02-19T13:45:26.694Z,18.70
2018-02-19T13:46:26.691Z,29.70
2018-02-19T13:47:26.693Z,34.40
2018-02-19T13:48:26.700Z,28.20
2018-02-19T13:49:26.691Z,26.40
2018-02-19T13:50:26.667Z,22.70
2018-02-19T13:51:26.659Z,23.80
2018-02-19T13:52:26.655Z,27.60
2018-02-19T13:53:26.651Z,26.90
2018-02-19T13:54:26.646Z,22.40
2018-02-19T13:55:26.660Z,27.10
2018-02-19T13:56:26.734Z,22.70
2018-02-19T13:57:26.625Z,20.10
2018-02-19T13:58:26.619Z,19.70
2018-02-19T13:59:26.613Z,23.00
2018-02-19T14:00:26.606Z,19.10
2018-02-19T14:01:27.270Z,24.40
2018-02-19T14:02:26.598Z,21.90
2018-02-19T14:03:26.599Z,26.20
2018-02-19T14:04:26.584Z,37.50
2018-02-19T14:05:26.616Z,34.90
2018-02-19T14:06:26.575Z,29.10
2018-02-19T14:07:26.709Z,36.60
2018-02-19T14:08:26.622Z,22.20
2018-02-19T14:09:26.556Z,28.50
2018-02-19T14:10:26.612Z,27.10
2018-02-19T14:11:26.545Z,21.70
2018-02-19T14:12:26.575Z,22.40
2018-02-19T14:13:26.534Z,18.80
2018-02-19T14:14:26.585Z,23.10
2018-02-19T14:15:26.522Z,22.00
2018-02-19T14:16:26.516Z,19.90
2018-02-19T14:17:26.512Z,23.80
2018-02-19T14:18:26.515Z,20.00
2018-02-19T14:19:26.557Z,23.50
2018-02-19T14:20:26.499Z,24.30
2018-02-19T14:21:26.488Z,59.40
2018-02-19T14:22:26.537Z,39.40
2018-02-19T14:23:26.477Z,25.20
2018-02-19T14:24:26.598Z,21.70
2018-02-19T14:25:26.724Z,27.40
2018-02-19T14:26:26.461Z,23.70
2018-02-19T14:27:26.478Z,19.00
2018-02-19T14:28:26.448Z,20.40
2018-02-19T14:29:26.450Z,22.10
2018-02-19T14:30:26.435Z,23.10
2018-02-19T14:31:26.752Z,21.80
2018-02-19T14:32:26.428Z,20.90
2018-02-19T14:33:26.428Z,20.90
2018-02-19T14:34:26.436Z,21.20
2018-02-19T14:35:26.412Z,18.60
2018-02-19T14:36:26.421Z,21.60
2018-02-19T14:37:26.410Z,23.70
2018-02-19T14:38:26.390Z,18.60
2018-02-19T14:39:27.452Z,17.50
2018-02-19T14:40:26.386Z,23.20
2018-02-19T14:41:26.377Z,25.30
2018-02-19T14:42:26.367Z,23.70
2018-02-19T14:43:26.710Z,24.80
2018-02-19T14:44:26.377Z,24.50
2018-02-19T14:45:26.352Z,31.20
2018-02-19T14:46:26.344Z,36.50
2018-02-19T14:47:26.338Z,23.80
2018-02-19T14:48:26.349Z,24.20
2018-02-19T14:49:26.345Z,27.00
2018-02-19T14:50:26.887Z,25.00
2018-02-19T14:51:26.354Z,24.60
2018-02-19T14:52:26.323Z,20.10
2018-02-19T14:53:26.317Z,28.00
2018-02-19T14:54:26.298Z,33.20
2018-02-19T14:55:26.296Z,25.40
2018-02-19T14:56:26.291Z,23.60
2018-02-19T14:57:26.281Z,22.90
2018-02-19T14:58:26.277Z,20.30
2018-02-19T14:59:26.269Z,24.30
2018-02-19T15:00:26.319Z,20.40
2018-02-19T15:01:26.259Z,24.80
2018-02-19T15:02:26.256Z,21.10
2018-02-19T15:03:26.259Z,21.90
2018-02-19T15:04:26.240Z,21.40
2018-02-19T15:05:26.857Z,24.40
2018-02-19T15:06:26.341Z,24.10
2018-02-19T15:07:26.375Z,30.70
2018-02-19T15:08:26.238Z,24.90
2018-02-19T15:09:26.287Z,18.50
2018-02-19T15:10:26.205Z,23.90
2018-02-19T15:11:26.204Z,30.10
2018-02-19T15:12:26.195Z,23.20
2018-02-19T15:13:26.191Z,22.50
2018-02-19T15:14:26.195Z,23.60
2018-02-19T15:15:26.291Z,25.10
2018-02-19T15:16:28.876Z,27.50
2018-02-19T15:17:26.168Z,23.40
2018-02-19T15:18:26.158Z,22.00
2018-02-19T15:19:26.154Z,23.50
2018-02-19T15:20:26.146Z,21.70
2018-02-19T15:21:26.141Z,26.30
2018-02-19T15:22:26.135Z,22.80
2018-02-19T15:23:26.128Z,22.00
2018-02-19T15:24:26.140Z,27.70
2018-02-19T15:25:26.156Z,45.90
2018-02-19T15:26:26.110Z,28.60
2018-02-19T15:27:26.107Z,24.20
2018-02-19T15:28:26.101Z,21.20
2018-02-19T15:29:26.092Z,21.50